Latest Weather Observations for Cerberus

IDV60801

Issued at 12:02 pm EST Saturday 30 May 2015 (issued every 30 minutes, with the page automatically refreshed every 10 minutes)

About weather observations | Map of weather stations | Latest weather observations for VIC | Other Formats
Station Details ID: 086361 Name: CERBERUS Lat: -38.36 Lon: 145.18 Height: 12.69 m
Data from the previous 72 hours. | See also: Recent months at Cerberus
Date/Time
EST
Temp
°C
App
Temp
°C
Dew
Point
Rel
Hum
%
Delta-T
°C
Wind Press
QNH
hPa
Press
MSL
hPa
Rain
since 9 am
mm
Dir
 
Spd
km/h
Gust
km/h
Spd
kts
Gust
kts
30/12:00pm 14.9 8.7 6.2 56 4.2 WNW 28 46 15 25 1016.6 1016.6 0.0
30/11:30am 14.7 8.1 6.0 56 4.2 NW 30 50 16 27 1017.2 1017.2 0.0
30/11:26am 14.8 8.5 5.9 55 4.2 NW 28 50 15 27 1017.3 1017.3 0.0
30/11:00am 14.4 8.7 6.7 60 3.7 NW 26 46 14 25 1017.8 1017.8 0.0
30/10:30am 13.8 8.7 6.2 60 3.6 NNW 22 43 12 23 1018.3 1018.3 0.0
30/10:00am 13.4 8.4 6.5 63 3.3 NW 22 39 12 21 1018.6 1018.6 0.0
30/09:30am 13.0 8.4 6.6 65 3.1 NW 20 37 11 20 1018.8 1018.8 0.0
30/09:00am 12.7 8.1 6.5 66 2.9 NW 20 35 11 19 1018.9 1018.9 0.0
30/08:30am 12.1 8.1 6.6 69 2.6 NW 17 28 9 15 1018.9 1018.9 0.0
30/08:00am 11.4 7.0 6.5 72 2.3 NW 19 32 10 17 1018.8 1018.8 0.0
30/07:30am 11.1 6.7 6.5 73 2.2 NW 19 30 10 16 1018.9 1018.9 0.0
30/07:00am 11.0 7.0 6.6 74 2.1 NW 17 28 9 15 1018.9 1018.9 0.0
30/06:30am 11.1 6.7 6.6 74 2.1 NW 19 28 10 15 1018.9 1018.9 0.0
30/06:00am 11.3 7.7 6.8 74 2.1 NW 15 26 8 14 1019.0 1019.0 0.0
30/05:30am 11.5 7.5 6.8 73 2.2 NW 17 26 9 14 1018.8 1018.8 0.0
30/05:00am 11.6 8.1 7.1 74 2.1 NW 15 22 8 12 1018.8 1018.8 0.0
30/04:30am 11.8 8.8 7.5 75 2.1 NW 13 24 7 13 1019.0 1019.0 0.0
30/04:00am 11.4 10.5 7.7 78 1.8 NW 2 13 1 7 1019.2 1019.2 0.0
30/03:30am 10.9 9.4 7.0 77 1.9 NW 4 17 2 9 1019.4 1019.4 0.0
30/03:00am 11.2 9.8 7.1 76 2.0 NNW 4 17 2 9 1019.5 1019.5 0.0
30/02:30am 11.4 9.4 7.1 75 2.1 NNW 7 17 4 9 1019.7 1019.7 0.0
30/02:00am 11.6 9.8 7.1 74 2.1 NW 6 17 3 9 1019.9 1019.9 0.0
30/01:30am 11.3 10.2 7.0 75 2.0 NNW 2 13 1 7 1020.2 1020.2 0.0
30/01:00am 11.7 10.6 7.0 73 2.2 NNW 2 15 1 8 1020.5 1020.5 0.0
30/12:30am 11.6 10.1 6.7 72 2.3 NNW 4 15 2 8 1020.8 1020.8 0.0
30/12:00am 11.8 10.3 6.9 72 2.3 NNW 4 15 2 8 1021.0 1021.0 0.0
 
Date/Time
EST
Temp
°C
App
Temp
°C
Dew
Point
Rel
Hum
%
Delta-T
°C
Wind Press
QNH
hPa
Press
MSL
hPa
Rain
since 9 am
mm
Dir
 
Spd
km/h
Gust
km/h
Spd
kts
Gust
kts
29/11:30pm 11.6 10.4 6.5 71 2.4 NW 2 13 1 7 1021.1 1021.1 0.0
29/11:00pm 11.6 10.8 6.5 71 2.4 CALM 0 11 0 6 1021.1 1021.1 0.0
29/10:30pm 12.2 10.7 6.9 70 2.5 NW 4 15 2 8 1021.1 1021.1 0.0
29/10:00pm 12.4 11.3 7.1 70 2.5 NW 2 11 1 6 1021.3 1021.3 0.0
29/09:30pm 12.0 11.2 6.7 70 2.5 CALM 0 13 0 7 1021.3 1021.3 0.0
29/09:00pm 11.9 11.1 6.6 70 2.5 CALM 0 11 0 6 1021.4 1021.4 0.0
29/08:30pm 11.2 10.3 5.9 70 2.5 CALM 0 0 0 0 1021.4 1021.4 0.0
29/08:00pm 11.6 10.7 6.1 69 2.6 CALM 0 0 0 0 1021.4 1021.4 0.0
29/07:30pm 12.0 11.1 5.9 66 2.9 CALM 0 13 0 7 1021.4 1021.4 0.0
29/07:00pm 12.9 10.8 6.7 66 3.0 WNW 7 17 4 9 1021.1 1021.1 0.0
29/06:30pm 12.5 11.8 6.8 68 2.7 CALM 0 9 0 5 1020.9 1020.9 0.0
29/06:00pm 12.6 11.9 6.9 68 2.7 CALM 0 9 0 5 1020.6 1020.6 0.0
29/05:30pm 12.7 11.9 6.5 66 3.0 CALM 0 0 0 0 1020.4 1020.4 0.0
29/05:00pm 13.2 10.3 6.3 63 3.3 WNW 11 20 6 11 1020.4 1020.4 0.0
29/04:30pm 13.3 11.2 6.6 64 3.2 WNW 7 17 4 9 1020.3 1020.3 0.0
29/04:00pm 13.4 10.8 6.3 62 3.4 WNW 9 19 5 10 1020.2 1020.2 0.0
29/03:30pm 13.7 10.0 6.3 61 3.5 W 15 22 8 12 1020.2 1020.2 0.0
29/03:00pm 14.5 11.7 6.8 60 3.7 W 11 28 6 15 1020.1 1020.1 0.0
29/02:30pm 13.6 9.9 6.5 62 3.4 WNW 15 20 8 11 1020.2 1020.2 0.0
29/02:00pm 14.8 10.9 7.1 60 3.8 WSW 17 24 9 13 1020.1 1020.1 0.0
29/01:30pm 14.3 10.2 6.4 59 3.8 WSW 17 28 9 15 1020.2 1020.2 0.0
29/01:00pm 13.6 9.2 6.7 63 3.3 W 19 32 10 17 1020.4 1020.4 0.0
29/12:30pm 13.5 9.5 6.8 64 3.2 W 17 24 9 13 1020.6 1020.6 0.0
29/12:00pm 13.3 10.8 8.0 70 2.6 WSW 11 24 6 13 1020.8 1020.8 0.0
29/11:30am 13.1 9.6 7.3 68 2.8 W 15 24 8 13 1021.3 1021.3 0.0
29/11:00am 12.4 8.0 6.7 68 2.7 WNW 19 28 10 15 1021.5 1021.5 0.0
29/10:30am 12.6 8.4 7.3 70 2.6 WNW 19 28 10 15 1021.4 1021.4 0.0
29/10:00am 12.0 7.1 6.7 70 2.5 WNW 22 33 12 18 1021.1 1021.1 0.0
29/09:30am 11.8 7.4 6.5 70 2.5 WNW 19 32 10 17 1020.9 1020.9 0.0
29/09:00am 11.6 7.6 6.7 72 2.3 WNW 17 28 9 15 1020.8 1020.8 1.4
29/08:30am 11.0 7.0 6.6 74 2.1 WNW 17 30 9 16 1020.5 1020.5 1.4
29/08:00am 10.2 6.5 6.4 77 1.8 NW 15 20 8 11 1020.2 1020.2 1.4
29/07:30am 9.8 6.8 6.0 77 1.8 NW 11 19 6 10 1020.0 1020.0 1.4
29/07:00am 9.8 7.2 6.0 77 1.7 NW 9 20 5 11 1019.7 1019.7 1.4
29/06:30am 9.7 6.7 5.9 77 1.7 WNW 11 19 6 10 1019.5 1019.5 1.4
29/06:00am 9.8 6.8 5.8 76 1.8 NW 11 17 6 9 1019.1 1019.1 1.4
29/05:30am 9.9 5.7 5.9 76 1.8 WNW 17 22 9 12 1018.7 1018.7 1.4
29/05:00am 10.1 6.3 5.9 75 1.9 WNW 15 22 8 12 1018.6 1018.6 1.4
29/04:30am 9.9 8.6 5.9 76 1.8 NW 2 13 1 7 1018.6 1018.6 1.4
29/04:00am 10.1 7.8 5.7 74 2.0 NNW 7 15 4 8 1018.3 1018.3 1.4
29/03:30am 9.7 8.6 5.3 74 2.0 CALM 0 0 0 0 1018.0 1018.0 1.4
29/03:00am 10.9 10.1 6.3 73 2.1 CALM 0 0 0 0 1017.8 1017.8 1.4
29/02:30am 10.7 9.8 6.1 73 2.1 CALM 0 13 0 7 1017.7 1017.7 1.4
29/02:00am 11.0 9.8 6.4 73 2.2 WNW 2 13 1 7 1017.4 1017.4 1.4
29/01:30am 11.4 8.5 6.5 72 2.3 W 11 24 6 13 1017.0 1017.0 1.4
29/01:00am 11.8 8.6 6.7 71 2.4 W 13 20 7 11 1016.8 1016.8 1.4
29/12:30am 12.2 8.0 7.3 72 2.4 WSW 19 30 10 16 1016.4 1016.4 1.4
29/12:00am 12.5 8.8 8.0 74 2.2 W 17 24 9 13 1016.2 1016.2 1.4
 
Date/Time
EST
Temp
°C
App
Temp
°C
Dew
Point
Rel
Hum
%
Delta-T
°C
Wind Press
QNH
hPa
Press
MSL
hPa
Rain
since 9 am
mm
Dir
 
Spd
km/h
Gust
km/h
Spd
kts
Gust
kts
28/11:30pm 12.5 9.3 8.4 76 2.0 WNW 15 22 8 12 1016.0 1016.0 1.4
28/11:00pm 12.9 8.5 8.8 76 2.1 WSW 22 32 12 17 1015.7 1015.7 1.4
28/10:30pm 12.9 8.8 8.8 76 2.1 W 20 33 11 18 1015.6 1015.6 1.4
28/10:00pm 12.8 8.8 9.1 78 1.9 W 20 30 11 16 1015.6 1015.6 1.4
28/09:30pm 12.8 9.6 9.8 82 1.5 W 17 26 9 14 1015.7 1015.7 1.4
28/09:00pm 12.9 10.3 10.6 86 1.2 WSW 15 22 8 12 1015.3 1015.3 1.4
28/08:30pm 13.2 9.2 10.4 83 1.5 WSW 22 33 12 18 1015.1 1015.1 1.0
28/08:00pm 13.7 11.9 10.7 82 1.6 WSW 11 22 6 12 1014.9 1014.9 0.4
28/07:30pm 14.2 11.8 10.0 76 2.2 SW 13 20 7 11 1014.5 1014.5 0.0
28/07:00pm 17.0 14.5 8.4 57 4.4 WNW 11 19 6 10 1013.4 1013.5 0.0
28/06:30pm 17.4 13.8 8.5 56 4.6 WNW 17 26 9 14 1012.9 1012.9 0.0
28/06:00pm 17.7 14.8 8.3 54 4.8 NW 13 30 7 16 1012.3 1012.3 0.0
28/05:30pm 17.1 14.4 9.0 59 4.2 NW 13 30 7 16 1011.8 1011.8 0.0
28/05:00pm 17.1 14.2 9.5 61 4.0 NNW 15 26 8 14 1011.6 1011.6 0.0
28/04:30pm 17.1 15.1 10.0 63 3.7 NNW 11 24 6 13 1011.8 1011.8 0.0
28/04:00pm 18.3 15.5 9.9 58 4.5 NNW 15 30 8 16 1012.0 1012.0 0.0
28/03:30pm 18.7 14.8 9.5 55 4.9 NNW 20 33 11 18 1012.1 1012.1 0.0
28/03:00pm 19.3 16.0 9.5 53 5.2 NNW 17 32 9 17 1012.3 1012.3 0.0
28/02:30pm 18.6 14.7 8.6 52 5.2 NNW 19 28 10 15 1012.3 1012.3 0.0
28/02:00pm 19.3 14.7 8.3 49 5.7 NNW 22 41 12 22 1012.3 1012.3 0.0
28/01:30pm 19.0 15.0 9.2 53 5.2 NNW 20 37 11 20 1012.6 1012.6 0.0
28/01:00pm 18.4 14.2 9.7 57 4.6 NNW 22 37 12 20 1013.0 1013.0 0.0
28/12:30pm 18.5 14.2 9.3 55 4.8 NNW 22 41 12 22 1013.4 1013.5 0.0
28/12:04pm 18.6 13.1 9.1 54 5.0 NNW 28 54 15 29 1014.0 1014.0 0.0
28/12:00pm 18.7 13.6 9.2 54 5.0 NNW 26 54 14 29 1014.0 1014.0 0.0
28/11:30am 18.1 13.5 9.7 58 4.4 NNW 24 41 13 22 1014.6 1014.6 0.0
28/11:00am 17.6 14.1 10.2 62 3.9 NNW 19 37 10 20 1015.4 1015.4 0.0
28/10:30am 16.2 13.2 10.5 69 3.0 NNW 17 32 9 17 1015.9 1015.9 0.0
28/10:00am 15.4 12.3 10.2 71 2.7 N 17 33 9 18 1016.0 1016.0 0.0
28/09:30am 14.4 12.9 10.4 77 2.1 N 9 26 5 14 1016.4 1016.4 0.0
28/09:00am 13.7 12.4 10.1 79 1.9 NNW 7 20 4 11 1016.5 1016.5 0.8
28/08:30am 13.3 13.0 10.1 81 1.7 N 2 15 1 8 1016.6 1016.6 0.8
28/08:00am 13.2 12.4 9.8 80 1.7 NNW 4 15 2 8 1016.6 1016.6 0.8
28/07:30am 13.4 12.3 9.8 79 1.8 NNW 6 19 3 10 1016.7 1016.7 0.8
28/07:00am 13.4 12.0 9.6 78 1.9 NNW 7 19 4 10 1016.5 1016.5 0.8
28/06:30am 13.3 11.1 9.5 78 1.9 NNW 11 22 6 12 1016.3 1016.3 0.8
28/06:00am 13.6 10.7 9.6 77 2.0 NNW 15 30 8 16 1016.2 1016.2 0.8
28/05:30am 13.7 10.8 9.7 77 2.1 NNW 15 26 8 14 1016.3 1016.3 0.8
28/05:00am 13.6 11.1 9.6 77 2.0 NNW 13 24 7 13 1016.4 1016.4 0.8
28/04:30am 13.4 10.8 9.5 77 2.0 NNW 13 24 7 13 1016.4 1016.4 0.8
28/04:00am 13.7 11.1 9.4 75 2.2 NNW 13 30 7 16 1016.4 1016.4 0.8
28/03:30am 14.1 10.7 9.3 73 2.5 NNW 17 30 9 16 1016.5 1016.5 0.8
28/03:00am 14.3 10.6 9.5 73 2.5 NNW 19 32 10 17 1016.7 1016.7 0.8
28/02:30am 14.2 11.3 9.8 75 2.3 NNW 15 30 8 16 1016.9 1016.9 0.8
28/02:00am 13.9 10.6 9.5 75 2.2 NNW 17 32 9 17 1017.2 1017.2 0.8
28/01:30am 14.2 11.3 9.6 74 2.4 NNW 15 24 8 13 1017.3 1017.3 0.8
28/01:00am 14.6 11.4 9.8 73 2.5 NNW 17 32 9 17 1017.3 1017.3 0.8
28/12:30am 14.6 11.4 10.0 74 2.4 NNW 17 33 9 18 1017.4 1017.4 0.8
28/12:00am 14.5 11.3 9.9 74 2.4 NNW 17 32 9 17 1017.6 1017.6 0.8
 
Date/Time
EST
Temp
°C
App
Temp
°C
Dew
Point
Rel
Hum
%
Delta-T
°C
Wind Press
QNH
hPa
Press
MSL
hPa
Rain
since 9 am
mm
Dir
 
Spd
km/h
Gust
km/h
Spd
kts
Gust
kts
27/11:30pm 13.5 12.3 9.6 77 2.0 N 6 17 3 9 1017.9 1017.9 0.8
27/11:00pm 13.5 13.0 9.4 76 2.1 N 2 15 1 8 1018.0 1018.0 0.8
27/10:30pm 13.6 12.7 9.3 75 2.2 NNW 4 13 2 7 1018.1 1018.1 0.8
27/10:00pm 13.9 12.1 9.3 74 2.3 NNW 9 20 5 11 1018.0 1018.0 0.8
27/09:30pm 13.1 12.8 8.6 74 2.2 CALM 0 11 0 6 1018.0 1018.0 0.8
27/09:00pm 14.1 12.2 9.1 72 2.5 NNW 9 19 5 10 1018.1 1018.1 0.8
27/08:30pm 13.9 12.5 8.9 72 2.5 N 6 15 3 8 1018.2 1018.2 0.8
27/08:00pm 14.2 12.0 9.2 72 2.5 NNW 11 20 6 11 1018.3 1018.3 0.8
27/07:30pm 14.4 11.4 9.2 71 2.7 NNW 15 22 8 12 1018.3 1018.3 0.8
27/07:00pm 14.6 12.7 9.2 70 2.8 NNW 9 22 5 12 1018.2 1018.2 0.8
27/06:30pm 15.3 12.7 9.4 68 3.0 NNW 13 22 7 12 1017.9 1017.9 0.8
27/06:00pm 15.5 12.9 9.4 67 3.1 NNW 13 24 7 13 1017.8 1017.8 0.8
27/05:30pm 15.5 13.7 9.4 67 3.1 NNW 9 20 5 11 1017.5 1017.5 0.8
27/05:00pm 16.2 14.0 9.4 64 3.5 NNW 11 20 6 11 1017.2 1017.2 0.8
27/04:30pm 17.0 14.1 9.7 62 3.8 NNW 15 32 8 17 1017.1 1017.1 0.8
27/04:00pm 17.0 14.5 9.7 62 3.8 NNW 13 24 7 13 1017.1 1017.1 0.8
27/03:30pm 17.8 16.1 9.9 60 4.2 NNW 9 22 5 12 1017.1 1017.1 0.8
27/03:00pm 17.9 14.6 9.5 58 4.4 NNW 17 35 9 19 1017.1 1017.1 0.8
27/02:30pm 17.9 16.2 9.8 59 4.3 NNW 9 20 5 11 1017.2 1017.2 0.8
27/02:00pm 17.3 15.4 9.0 58 4.3 NNW 9 26 5 14 1017.5 1017.5 0.8
27/01:30pm 17.3 15.2 9.7 61 4.0 N 11 24 6 13 1017.7 1017.7 0.8
27/01:00pm 16.5 13.9 9.4 63 3.7 NNW 13 28 7 15 1018.3 1018.3 0.8
27/12:30pm 15.8 14.0 9.5 66 3.3 NNW 9 19 5 10 1018.7 1018.7 0.8

Other Formats:

Comma delimited format used in spreadsheet applications
http://www.bom.gov.au/fwo/IDV60801/IDV60801.94898.axf

JavaScript Object Notation format (JSON) in row-major order
http://www.bom.gov.au/fwo/IDV60801/IDV60801.94898.json